createdAt,value
2022-10-13T00:00:04.166Z,1017.22
2022-10-13T00:01:04.186Z,1017.21
2022-10-13T00:02:04.145Z,1017.21
2022-10-13T00:03:04.130Z,1017.17
2022-10-13T00:04:04.129Z,1017.17
2022-10-13T00:05:04.119Z,1017.18
2022-10-13T00:06:04.099Z,1017.16
2022-10-13T00:07:04.087Z,1017.17
2022-10-13T00:08:04.081Z,1017.16
2022-10-13T00:09:04.073Z,1017.15
2022-10-13T00:10:04.056Z,1017.13
2022-10-13T00:11:04.046Z,1017.12
2022-10-13T00:12:04.036Z,1017.09
2022-10-13T00:13:04.024Z,1017.09
2022-10-13T00:14:04.019Z,1017.09
2022-10-13T00:15:03.998Z,1017.06
2022-10-13T00:16:03.992Z,1017.10
2022-10-13T00:17:03.995Z,1017.05
2022-10-13T00:18:03.978Z,1017.07
2022-10-13T00:19:03.952Z,1017.07
2022-10-13T00:20:03.947Z,1017.10
2022-10-13T00:21:03.931Z,1017.06
2022-10-13T00:22:03.970Z,1017.08
2022-10-13T00:23:03.922Z,1017.05
2022-10-13T00:24:03.901Z,1017.06
2022-10-13T00:25:03.888Z,1017.07
2022-10-13T00:26:03.880Z,1017.04
2022-10-13T00:27:03.871Z,1017.07
2022-10-13T00:28:03.867Z,1017.05
2022-10-13T00:29:03.881Z,1016.99
2022-10-13T00:30:03.836Z,1017.03
2022-10-13T00:31:03.824Z,1016.97
2022-10-13T00:32:03.814Z,1016.96
2022-10-13T00:33:03.829Z,1016.98
2022-10-13T00:34:03.792Z,1016.99
2022-10-13T00:35:03.782Z,1017.00
2022-10-13T00:36:03.770Z,1017.01
2022-10-13T00:37:03.768Z,1017.04
2022-10-13T00:38:03.764Z,1017.01
2022-10-13T00:39:03.734Z,1017.04
2022-10-13T00:40:03.741Z,1017.00
2022-10-13T00:41:03.719Z,1017.01
2022-10-13T00:42:03.706Z,1017.03
2022-10-13T00:43:03.702Z,1017.00
2022-10-13T00:44:03.687Z,1017.03
2022-10-13T00:45:03.673Z,1016.96
2022-10-13T00:46:03.661Z,1016.94
2022-10-13T00:47:03.649Z,1016.93
2022-10-13T00:48:03.649Z,1016.93
2022-10-13T00:49:03.707Z,1016.92
2022-10-13T00:50:03.615Z,1016.93
2022-10-13T00:51:03.604Z,1016.94
2022-10-13T00:52:03.594Z,1016.95
2022-10-13T00:53:03.592Z,1016.95
2022-10-13T00:54:03.578Z,1016.93
2022-10-13T00:55:03.560Z,1016.91
2022-10-13T00:56:03.550Z,1016.94
2022-10-13T00:57:03.551Z,1016.93
2022-10-13T00:58:05.370Z,1016.88
2022-10-13T00:59:03.518Z,1016.91
2022-10-13T01:00:03.505Z,1016.93
2022-10-13T01:01:03.538Z,1016.95
2022-10-13T01:02:03.483Z,1016.96
2022-10-13T01:03:03.482Z,1016.93
2022-10-13T01:04:03.468Z,1016.93
2022-10-13T01:05:03.466Z,1016.91
2022-10-13T01:06:03.441Z,1016.93
2022-10-13T01:07:03.429Z,1016.90
2022-10-13T01:08:03.430Z,1016.88
2022-10-13T01:09:03.406Z,1016.86
2022-10-13T01:10:03.397Z,1016.91
2022-10-13T01:11:03.386Z,1016.93
2022-10-13T01:12:03.374Z,1016.96
2022-10-13T01:13:03.372Z,1016.92
2022-10-13T01:14:03.359Z,1016.93
2022-10-13T01:15:03.339Z,1016.91
2022-10-13T01:16:03.332Z,1016.91
2022-10-13T01:17:03.318Z,1016.87
2022-10-13T01:18:03.322Z,1016.89
2022-10-13T01:19:03.296Z,1016.87
2022-10-13T01:20:03.289Z,1016.88
2022-10-13T01:21:03.288Z,1016.85
2022-10-13T01:22:03.264Z,1016.87
2022-10-13T01:23:03.276Z,1016.86
2022-10-13T01:24:03.243Z,1016.86
2022-10-13T01:25:03.278Z,1016.88
2022-10-13T01:26:03.220Z,1016.87
2022-10-13T01:27:03.208Z,1016.83
2022-10-13T01:28:03.211Z,1016.81
2022-10-13T01:29:03.187Z,1016.81
2022-10-13T01:30:03.175Z,1016.79
2022-10-13T01:31:03.165Z,1016.77
2022-10-13T01:32:03.156Z,1016.80
2022-10-13T01:33:03.156Z,1016.75
2022-10-13T01:34:03.140Z,1016.76
2022-10-13T01:35:03.123Z,1016.74
2022-10-13T01:36:03.110Z,1016.70
2022-10-13T01:37:03.113Z,1016.70
2022-10-13T01:38:03.100Z,1016.72
2022-10-13T01:39:03.114Z,1016.68
2022-10-13T01:40:03.066Z,1016.65
2022-10-13T01:41:03.054Z,1016.66
2022-10-13T01:42:03.043Z,1016.67
2022-10-13T01:43:03.044Z,1016.64
2022-10-13T01:44:03.024Z,1016.65
2022-10-13T01:45:03.020Z,1016.67
2022-10-13T01:46:02.999Z,1016.65
2022-10-13T01:47:02.989Z,1016.67
2022-10-13T01:48:02.988Z,1016.64
2022-10-13T01:49:02.981Z,1016.65
2022-10-13T01:50:02.957Z,1016.65
2022-10-13T01:51:02.947Z,1016.62
2022-10-13T01:52:02.934Z,1016.59
2022-10-13T01:53:02.952Z,1016.61
2022-10-13T01:54:02.910Z,1016.62
2022-10-13T01:55:02.908Z,1016.58
2022-10-13T01:56:02.889Z,1016.58
2022-10-13T01:57:02.889Z,1016.56
2022-10-13T01:58:02.877Z,1016.56
2022-10-13T01:59:02.858Z,1016.52
2022-10-13T02:00:02.845Z,1016.51
2022-10-13T02:01:02.925Z,1016.53
2022-10-13T02:02:02.825Z,1016.50
2022-10-13T02:03:02.826Z,1016.52
2022-10-13T02:04:02.802Z,1016.49
2022-10-13T02:05:10.384Z,1016.54
2022-10-13T02:06:02.780Z,1016.49
2022-10-13T02:07:02.771Z,1016.46
2022-10-13T02:08:02.772Z,1016.44
2022-10-13T02:09:02.766Z,1016.38
2022-10-13T02:10:02.737Z,1016.41
2022-10-13T02:11:02.727Z,1016.41
2022-10-13T02:12:02.719Z,1016.38
2022-10-13T02:13:02.719Z,1016.41
2022-10-13T02:14:02.691Z,1016.41
2022-10-13T02:15:02.685Z,1016.39
2022-10-13T02:16:02.673Z,1016.38
2022-10-13T02:17:02.659Z,1016.38
2022-10-13T02:18:02.657Z,1016.37
2022-10-13T02:19:02.662Z,1016.35
2022-10-13T02:20:02.626Z,1016.32
2022-10-13T02:21:02.628Z,1016.31
2022-10-13T02:22:02.604Z,1016.32
2022-10-13T02:23:02.606Z,1016.33
2022-10-13T02:24:02.582Z,1016.35
2022-10-13T02:25:02.690Z,1016.31
2022-10-13T02:26:02.562Z,1016.31
2022-10-13T02:27:02.552Z,1016.35
2022-10-13T02:28:02.549Z,1016.30
2022-10-13T02:29:02.529Z,1016.31
2022-10-13T02:30:02.522Z,1016.28
2022-10-13T02:31:02.509Z,1016.28
2022-10-13T02:32:02.496Z,1016.25
2022-10-13T02:33:02.502Z,1016.28
2022-10-13T02:34:02.475Z,1016.26
2022-10-13T02:35:02.467Z,1016.25
2022-10-13T02:36:02.451Z,1016.28
2022-10-13T02:37:02.441Z,1016.23
2022-10-13T02:38:02.440Z,1016.22
2022-10-13T02:39:02.422Z,1016.23
2022-10-13T02:40:02.417Z,1016.18
2022-10-13T02:41:02.421Z,1016.22
2022-10-13T02:42:02.386Z,1016.22
2022-10-13T02:43:02.389Z,1016.21
2022-10-13T02:44:02.364Z,1016.16
2022-10-13T02:45:02.357Z,1016.13
2022-10-13T02:46:02.340Z,1016.11
2022-10-13T02:47:02.331Z,1016.13
2022-10-13T02:48:02.333Z,1016.11
2022-10-13T02:49:02.318Z,1016.12
2022-10-13T02:50:02.298Z,1016.09
2022-10-13T02:51:02.289Z,1016.05
2022-10-13T02:52:02.277Z,1016.08
2022-10-13T02:53:02.280Z,1016.04
2022-10-13T02:54:02.254Z,1016.02
2022-10-13T02:55:02.248Z,1016.07
2022-10-13T02:56:02.243Z,1016.05
2022-10-13T02:57:02.240Z,1016.06
2022-10-13T02:58:02.227Z,1016.11
2022-10-13T02:59:02.205Z,1016.08
2022-10-13T03:00:02.194Z,1015.99
2022-10-13T03:01:02.240Z,1015.97
2022-10-13T03:02:02.169Z,1015.98
2022-10-13T03:03:02.173Z,1016.00
2022-10-13T03:04:02.159Z,1015.96
2022-10-13T03:05:02.138Z,1016.05
2022-10-13T03:06:02.125Z,1015.99
2022-10-13T03:07:02.114Z,1016.01
2022-10-13T03:08:02.115Z,1015.99
2022-10-13T03:09:02.095Z,1016.04
2022-10-13T03:10:02.082Z,1015.96
2022-10-13T03:11:02.071Z,1015.96
2022-10-13T03:12:02.059Z,1015.93
2022-10-13T03:13:02.083Z,1015.94
2022-10-13T03:14:02.037Z,1015.94
2022-10-13T03:15:02.061Z,1015.93
2022-10-13T03:16:02.017Z,1015.89
2022-10-13T03:17:02.006Z,1015.94
2022-10-13T03:18:02.007Z,1015.86
2022-10-13T03:19:01.991Z,1015.91
2022-10-13T03:20:01.976Z,1015.94
2022-10-13T03:21:01.969Z,1015.93
2022-10-13T03:22:01.954Z,1015.92
2022-10-13T03:23:01.953Z,1015.88
2022-10-13T03:24:01.991Z,1015.91
2022-10-13T03:25:01.920Z,1015.94
2022-10-13T03:26:01.912Z,1015.90
2022-10-13T03:27:01.900Z,1015.90
2022-10-13T03:28:01.898Z,1015.87
2022-10-13T03:29:01.897Z,1015.90
2022-10-13T03:30:01.865Z,1015.87
2022-10-13T03:31:01.864Z,1015.87
2022-10-13T03:32:01.846Z,1015.82
2022-10-13T03:33:01.845Z,1015.86
2022-10-13T03:34:01.827Z,1015.87
2022-10-13T03:35:01.815Z,1015.82
2022-10-13T03:36:01.808Z,1015.86
2022-10-13T03:37:01.789Z,1015.90
2022-10-13T03:38:01.790Z,1015.85
2022-10-13T03:39:01.770Z,1015.91
2022-10-13T03:40:01.756Z,1015.81
2022-10-13T03:41:01.753Z,1015.83
2022-10-13T03:42:01.735Z,1015.82
2022-10-13T03:43:01.735Z,1015.85
2022-10-13T03:44:01.748Z,1015.83
2022-10-13T03:45:01.721Z,1015.79
2022-10-13T03:46:01.693Z,1015.87
2022-10-13T03:47:01.702Z,1015.79
2022-10-13T03:48:01.677Z,1015.76
2022-10-13T03:49:01.662Z,1015.76
2022-10-13T03:50:01.651Z,1015.74
2022-10-13T03:51:01.640Z,1015.78
2022-10-13T03:52:01.628Z,1015.72
2022-10-13T03:53:01.628Z,1015.68
2022-10-13T03:54:01.606Z,1015.74
2022-10-13T03:55:01.595Z,1015.73
2022-10-13T03:56:01.585Z,1015.69
2022-10-13T03:57:01.577Z,1015.71
2022-10-13T03:58:01.576Z,1015.72
2022-10-13T03:59:01.561Z,1015.68
2022-10-13T04:00:01.556Z,1015.70
2022-10-13T04:01:01.667Z,1015.72
2022-10-13T04:02:01.583Z,1015.65
2022-10-13T04:03:01.520Z,1015.70
2022-10-13T04:04:01.500Z,1015.68
2022-10-13T04:05:01.493Z,1015.67
2022-10-13T04:06:01.477Z,1015.64
2022-10-13T04:07:01.477Z,1015.69
2022-10-13T04:08:01.454Z,1015.66
2022-10-13T04:09:01.445Z,1015.66
2022-10-13T04:10:01.434Z,1015.65
2022-10-13T04:11:01.431Z,1015.62
2022-10-13T04:12:01.424Z,1015.65
2022-10-13T04:13:01.434Z,1015.66
2022-10-13T04:14:01.390Z,1015.69
2022-10-13T04:15:01.380Z,1015.67
2022-10-13T04:16:01.370Z,1015.69
2022-10-13T04:17:01.386Z,1015.70
2022-10-13T04:18:01.350Z,1015.66
2022-10-13T04:19:01.336Z,1015.65
2022-10-13T04:20:01.333Z,1015.67
2022-10-13T04:21:01.315Z,1015.66
2022-10-13T04:22:01.315Z,1015.62
2022-10-13T04:23:01.294Z,1015.60
2022-10-13T04:24:01.286Z,1015.61
2022-10-13T04:25:01.312Z,1015.54
2022-10-13T04:26:01.264Z,1015.56
2022-10-13T04:27:01.267Z,1015.60
2022-10-13T04:28:01.239Z,1015.61
2022-10-13T04:29:01.230Z,1015.63
2022-10-13T04:30:01.216Z,1015.62
2022-10-13T04:31:01.209Z,1015.65
2022-10-13T04:32:01.201Z,1015.59
2022-10-13T04:33:01.213Z,1015.64
2022-10-13T04:34:01.173Z,1015.61
2022-10-13T04:35:01.166Z,1015.61
2022-10-13T04:36:01.155Z,1015.63
2022-10-13T04:37:01.143Z,1015.64
2022-10-13T04:38:01.143Z,1015.59
2022-10-13T04:39:01.122Z,1015.57
2022-10-13T04:40:01.108Z,1015.54
2022-10-13T04:41:01.106Z,1015.53
2022-10-13T04:42:01.088Z,1015.55
2022-10-13T04:43:01.092Z,1015.56
2022-10-13T04:44:01.066Z,1015.51
2022-10-13T04:45:01.061Z,1015.56
2022-10-13T04:46:01.044Z,1015.56
2022-10-13T04:47:01.036Z,1015.52
2022-10-13T04:48:01.098Z,1015.53
2022-10-13T04:49:01.031Z,1015.48
2022-10-13T04:50:01.001Z,1015.49
2022-10-13T04:51:00.991Z,1015.45
2022-10-13T04:52:00.984Z,1015.44
2022-10-13T04:53:01.019Z,1015.45
2022-10-13T04:54:00.957Z,1015.45
2022-10-13T04:55:00.949Z,1015.44
2022-10-13T04:56:00.938Z,1015.43
2022-10-13T04:57:00.926Z,1015.45
2022-10-13T04:58:00.924Z,1015.43
2022-10-13T04:59:00.907Z,1015.45
2022-10-13T05:00:00.893Z,1015.41
2022-10-13T05:01:00.931Z,1015.43
2022-10-13T05:02:00.874Z,1015.44
2022-10-13T05:03:00.870Z,1015.43
2022-10-13T05:04:00.865Z,1015.44
2022-10-13T05:05:00.857Z,1015.41
2022-10-13T05:06:00.827Z,1015.45
2022-10-13T05:07:18.316Z,1015.46
2022-10-13T05:08:01.816Z,1015.45
2022-10-13T05:09:00.797Z,1015.38
2022-10-13T05:10:00.787Z,1015.39
2022-10-13T05:11:00.773Z,1015.38
2022-10-13T05:12:00.761Z,1015.36
2022-10-13T05:13:00.767Z,1015.36
2022-10-13T05:14:00.738Z,1015.37
2022-10-13T05:15:00.735Z,1015.39
2022-10-13T05:16:00.719Z,1015.39
2022-10-13T05:17:00.708Z,1015.37
2022-10-13T05:18:00.708Z,1015.34
2022-10-13T05:19:00.687Z,1015.34
2022-10-13T05:20:00.676Z,1015.31
2022-10-13T05:21:00.680Z,1015.28
2022-10-13T05:22:00.652Z,1015.33
2022-10-13T05:23:00.656Z,1015.32
2022-10-13T05:24:00.628Z,1015.31
2022-10-13T05:25:00.625Z,1015.31
2022-10-13T05:26:00.610Z,1015.31
2022-10-13T05:27:00.602Z,1015.37
2022-10-13T05:28:00.604Z,1015.27
2022-10-13T05:29:00.588Z,1015.27
2022-10-13T05:30:00.592Z,1015.21
2022-10-13T05:31:00.556Z,1015.22
2022-10-13T05:32:00.543Z,1015.21
2022-10-13T05:33:00.548Z,1015.24
2022-10-13T05:34:00.524Z,1015.20
2022-10-13T05:35:00.511Z,1015.21
2022-10-13T05:36:00.499Z,1015.25
2022-10-13T05:37:00.638Z,1015.27
2022-10-13T05:38:00.505Z,1015.26
2022-10-13T05:39:00.478Z,1015.24
2022-10-13T05:40:00.467Z,1015.26
2022-10-13T05:41:00.468Z,1015.26
2022-10-13T05:42:00.434Z,1015.25
2022-10-13T05:43:00.478Z,1015.27
2022-10-13T05:44:00.416Z,1015.26
2022-10-13T05:45:00.404Z,1015.22
2022-10-13T05:46:00.393Z,1015.22
2022-10-13T05:47:05.025Z,1015.24
2022-10-13T05:48:01.366Z,1015.20
2022-10-13T05:49:00.360Z,1015.21
2022-10-13T05:50:00.344Z,1015.23
2022-10-13T05:51:00.337Z,1015.23
2022-10-13T05:52:00.354Z,1015.18
2022-10-13T05:53:00.331Z,1015.21
2022-10-13T05:54:00.302Z,1015.22
2022-10-13T05:55:00.298Z,1015.17
2022-10-13T05:56:00.281Z,1015.21
2022-10-13T05:57:00.283Z,1015.19
2022-10-13T05:58:00.257Z,1015.22
2022-10-13T05:59:00.251Z,1015.21
2022-10-13T06:00:00.240Z,1015.24
2022-10-13T06:01:00.225Z,1015.22
2022-10-13T06:02:00.274Z,1015.29
2022-10-13T06:03:00.204Z,1015.24
2022-10-13T06:04:00.194Z,1015.27
2022-10-13T06:05:00.183Z,1015.26
2022-10-13T06:06:00.174Z,1015.25
2022-10-13T06:07:00.173Z,1015.27
2022-10-13T06:08:00.150Z,1015.24
2022-10-13T06:09:00.164Z,1015.28
2022-10-13T06:10:00.138Z,1015.28
2022-10-13T06:11:00.114Z,1015.23
2022-10-13T06:12:00.119Z,1015.26
2022-10-13T06:13:00.094Z,1015.25
2022-10-13T06:14:00.089Z,1015.26
2022-10-13T06:15:00.085Z,1015.25
2022-10-13T06:16:00.066Z,1015.27
2022-10-13T06:17:00.086Z,1015.20
2022-10-13T06:18:00.041Z,1015.22
2022-10-13T06:19:00.027Z,1015.21
2022-10-13T06:20:00.022Z,1015.20
2022-10-13T06:21:00.007Z,1015.15
2022-10-13T06:22:03.460Z,1015.21
2022-10-13T06:22:59.987Z,1015.22
2022-10-13T06:23:59.975Z,1015.25
2022-10-13T06:24:59.977Z,1015.22
2022-10-13T06:25:59.954Z,1015.20
2022-10-13T06:26:59.955Z,1015.17
2022-10-13T06:27:59.932Z,1015.13
2022-10-13T06:29:00.148Z,1015.14
2022-10-13T06:29:59.913Z,1015.16
2022-10-13T06:30:59.901Z,1015.18
2022-10-13T06:31:59.889Z,1015.18
2022-10-13T06:32:59.885Z,1015.21
2022-10-13T06:33:59.866Z,1015.23
2022-10-13T06:34:59.859Z,1015.25
2022-10-13T06:35:59.844Z,1015.30
2022-10-13T06:36:59.836Z,1015.25
2022-10-13T06:37:59.854Z,1015.26
2022-10-13T06:38:59.817Z,1015.31
2022-10-13T06:39:59.804Z,1015.30
2022-10-13T06:40:59.869Z,1015.33
2022-10-13T06:41:59.778Z,1015.28
2022-10-13T06:42:59.778Z,1015.31
2022-10-13T06:43:59.758Z,1015.32
2022-10-13T06:44:59.746Z,1015.31
2022-10-13T06:45:59.736Z,1015.30
2022-10-13T06:46:59.723Z,1015.30
2022-10-13T06:47:59.737Z,1015.32
2022-10-13T06:48:59.700Z,1015.27
2022-10-13T06:49:59.697Z,1015.24
2022-10-13T06:50:59.681Z,1015.26
2022-10-13T06:51:59.670Z,1015.26
2022-10-13T06:52:59.701Z,1015.27
2022-10-13T06:53:59.651Z,1015.26
2022-10-13T06:54:59.637Z,1015.25
2022-10-13T06:55:59.627Z,1015.26
2022-10-13T06:56:59.635Z,1015.28
2022-10-13T06:57:59.614Z,1015.29
2022-10-13T06:58:59.599Z,1015.26
2022-10-13T06:59:59.586Z,1015.31
2022-10-13T07:00:59.646Z,1015.28
2022-10-13T07:01:59.567Z,1015.24
2022-10-13T07:02:59.572Z,1015.24
2022-10-13T07:03:59.542Z,1015.15
2022-10-13T07:04:59.530Z,1015.21
2022-10-13T07:05:59.521Z,1015.20
2022-10-13T07:06:59.517Z,1015.16
2022-10-13T07:07:59.521Z,1015.18
2022-10-13T07:08:59.486Z,1015.13
2022-10-13T07:09:59.488Z,1015.12
2022-10-13T07:10:59.462Z,1015.10
2022-10-13T07:11:59.480Z,1015.14
2022-10-13T07:12:59.459Z,1015.14
2022-10-13T07:13:59.433Z,1015.09
2022-10-13T07:14:59.422Z,1015.11
2022-10-13T07:15:59.427Z,1015.13
2022-10-13T07:16:59.415Z,1015.10
2022-10-13T07:17:59.391Z,1015.14
2022-10-13T07:18:59.376Z,1015.14
2022-10-13T07:20:01.298Z,1015.10
2022-10-13T07:21:00.354Z,1015.09
2022-10-13T07:21:59.345Z,1015.13
2022-10-13T07:22:59.353Z,1015.10
2022-10-13T07:23:59.343Z,1015.07
2022-10-13T07:24:59.358Z,1015.14
2022-10-13T07:25:59.301Z,1015.11
2022-10-13T07:27:02.768Z,1015.02
2022-10-13T07:28:00.278Z,1014.97
2022-10-13T07:28:59.410Z,1015.04
2022-10-13T07:29:59.267Z,1014.97
2022-10-13T07:30:59.244Z,1015.05
2022-10-13T07:31:59.249Z,1015.00
2022-10-13T07:32:59.223Z,1014.98
2022-10-13T07:33:59.228Z,1014.98
2022-10-13T07:34:59.202Z,1014.99
2022-10-13T07:35:59.192Z,1014.95
2022-10-13T07:36:59.189Z,1014.96
2022-10-13T07:37:59.172Z,1014.97
2022-10-13T07:38:59.157Z,1014.93
2022-10-13T07:39:59.147Z,1014.95
2022-10-13T07:40:59.140Z,1014.93
2022-10-13T07:41:59.150Z,1014.92
2022-10-13T07:42:59.115Z,1014.94
2022-10-13T07:43:59.129Z,1014.90
2022-10-13T07:44:59.108Z,1014.92
2022-10-13T07:45:59.093Z,1014.93
2022-10-13T07:46:59.068Z,1014.90
2022-10-13T07:47:59.071Z,1014.93
2022-10-13T07:48:59.071Z,1014.97
2022-10-13T07:49:59.054Z,1014.94
2022-10-13T07:50:59.057Z,1014.98
2022-10-13T07:51:59.016Z,1014.94
2022-10-13T07:52:59.058Z,1014.92
2022-10-13T07:53:58.995Z,1014.90
2022-10-13T07:54:58.994Z,1014.84
2022-10-13T07:55:58.973Z,1014.88
2022-10-13T07:56:58.971Z,1014.85
2022-10-13T07:57:58.951Z,1014.89
2022-10-13T07:58:58.939Z,1014.88
2022-10-13T07:59:58.929Z,1014.90
2022-10-13T08:00:59.565Z,1014.90
2022-10-13T08:01:58.951Z,1014.87
2022-10-13T08:02:59.006Z,1014.89
2022-10-13T08:03:58.887Z,1014.93
2022-10-13T08:04:58.874Z,1014.87
2022-10-13T08:05:58.868Z,1014.90
2022-10-13T08:06:58.890Z,1014.87
2022-10-13T08:07:58.855Z,1014.84
2022-10-13T08:08:58.829Z,1014.83
2022-10-13T08:09:58.842Z,1014.82
2022-10-13T08:10:58.811Z,1014.82
2022-10-13T08:12:00.965Z,1014.81
2022-10-13T08:12:58.799Z,1014.83
2022-10-13T08:13:58.792Z,1014.79
2022-10-13T08:15:00.598Z,1014.73
2022-10-13T08:16:58.773Z,1014.72
2022-10-13T08:17:58.736Z,1014.72
2022-10-13T08:18:58.717Z,1014.68
2022-10-13T08:19:58.708Z,1014.72
2022-10-13T08:21:23.970Z,1014.67
2022-10-13T08:22:00.305Z,1014.67
2022-10-13T08:22:58.676Z,1014.71
2022-10-13T08:23:58.664Z,1014.70
2022-10-13T08:24:58.653Z,1014.70
2022-10-13T08:25:58.649Z,1014.74
2022-10-13T08:26:58.640Z,1014.70
2022-10-13T08:28:00.645Z,1014.77
2022-10-13T08:29:16.494Z,1014.70
2022-10-13T08:29:59.598Z,1014.72
2022-10-13T08:30:58.734Z,1014.70
2022-10-13T08:31:58.592Z,1014.71
2022-10-13T08:32:58.597Z,1014.65
2022-10-13T08:33:58.557Z,1014.64
2022-10-13T08:34:58.544Z,1014.68
2022-10-13T08:35:58.542Z,1014.68
2022-10-13T08:36:58.543Z,1014.65
2022-10-13T08:37:58.530Z,1014.60
2022-10-13T08:38:58.503Z,1014.59
2022-10-13T08:39:58.497Z,1014.56
2022-10-13T08:40:58.479Z,1014.63
2022-10-13T08:41:58.485Z,1014.65
2022-10-13T08:43:00.497Z,1014.57
2022-10-13T08:44:40.966Z,1014.60
2022-10-13T08:45:35.821Z,1014.64
2022-10-13T08:45:59.428Z,1014.63
2022-10-13T08:46:58.443Z,1014.66
2022-10-13T08:47:58.406Z,1014.65
2022-10-13T08:48:58.411Z,1014.65
2022-10-13T08:50:00.450Z,1014.66
2022-10-13T08:50:58.403Z,1014.65
2022-10-13T08:51:58.391Z,1014.66
2022-10-13T08:52:58.373Z,1014.57
2022-10-13T08:53:58.389Z,1014.59
2022-10-13T08:54:58.337Z,1014.59
2022-10-13T08:55:58.327Z,1014.61
2022-10-13T08:56:58.354Z,1014.57
2022-10-13T08:57:58.302Z,1014.51
2022-10-13T08:58:58.294Z,1014.53
2022-10-13T08:59:58.303Z,1014.52
2022-10-13T09:00:58.266Z,1014.54
2022-10-13T09:01:58.341Z,1014.44
2022-10-13T09:02:58.305Z,1014.50
2022-10-13T09:03:58.233Z,1014.46
2022-10-13T09:04:58.242Z,1014.44
2022-10-13T09:05:58.211Z,1014.39
2022-10-13T09:06:58.223Z,1014.36
2022-10-13T09:07:58.194Z,1014.37
2022-10-13T09:08:58.180Z,1014.39
2022-10-13T09:09:58.169Z,1014.38
2022-10-13T09:10:58.156Z,1014.41
2022-10-13T09:11:58.171Z,1014.33
2022-10-13T09:12:58.134Z,1014.41
2022-10-13T09:13:58.126Z,1014.35
2022-10-13T09:14:58.113Z,1014.33
2022-10-13T09:15:58.103Z,1014.32
2022-10-13T09:16:58.090Z,1014.26
2022-10-13T09:17:58.097Z,1014.36
2022-10-13T09:18:58.070Z,1014.33
2022-10-13T09:19:58.060Z,1014.30
2022-10-13T09:20:58.074Z,1014.35
2022-10-13T09:21:58.039Z,1014.35
2022-10-13T09:22:58.039Z,1014.35
2022-10-13T09:23:58.050Z,1014.32
2022-10-13T09:24:58.005Z,1014.39
2022-10-13T09:25:57.996Z,1014.41
2022-10-13T09:26:57.983Z,1014.37
2022-10-13T09:27:57.986Z,1014.39
2022-10-13T09:28:58.033Z,1014.38
2022-10-13T09:29:57.954Z,1014.37
2022-10-13T09:30:57.942Z,1014.39
2022-10-13T09:31:57.946Z,1014.39
2022-10-13T09:32:57.932Z,1014.39
2022-10-13T09:33:57.908Z,1014.39
2022-10-13T09:34:57.898Z,1014.40
2022-10-13T09:35:57.894Z,1014.41
2022-10-13T09:36:57.891Z,1014.40
2022-10-13T09:37:57.880Z,1014.40
2022-10-13T09:38:57.854Z,1014.39
2022-10-13T09:39:57.845Z,1014.40
2022-10-13T09:40:57.835Z,1014.39
2022-10-13T09:41:57.826Z,1014.39
2022-10-13T09:42:57.819Z,1014.37
2022-10-13T09:43:57.799Z,1014.40
2022-10-13T09:44:57.789Z,1014.38
2022-10-13T09:45:57.785Z,1014.39
2022-10-13T09:46:57.766Z,1014.40
2022-10-13T09:47:57.765Z,1014.39
2022-10-13T09:48:57.752Z,1014.39
2022-10-13T09:49:57.753Z,1014.37
2022-10-13T09:50:57.724Z,1014.38
2022-10-13T09:51:57.715Z,1014.38
2022-10-13T09:52:57.724Z,1014.40
2022-10-13T09:53:57.690Z,1014.39
2022-10-13T09:54:57.680Z,1014.42
2022-10-13T09:55:57.668Z,1014.43
2022-10-13T09:56:57.662Z,1014.42
2022-10-13T09:57:57.656Z,1014.43
2022-10-13T09:58:57.634Z,1014.43
2022-10-13T09:59:57.704Z,1014.39
2022-10-13T10:00:57.654Z,1014.42
2022-10-13T10:01:57.602Z,1014.38
2022-10-13T10:02:57.603Z,1014.39
2022-10-13T10:03:57.722Z,1014.40
2022-10-13T10:04:57.569Z,1014.39
2022-10-13T10:05:57.666Z,1014.37
2022-10-13T10:06:57.546Z,1014.41
2022-10-13T10:07:57.574Z,1014.42
2022-10-13T10:09:03.347Z,1014.40
2022-10-13T10:09:58.533Z,1014.41
2022-10-13T10:10:57.515Z,1014.40
2022-10-13T10:11:57.498Z,1014.39
2022-10-13T10:12:57.491Z,1014.39
2022-10-13T10:13:57.470Z,1014.38
2022-10-13T10:14:57.526Z,1014.39
2022-10-13T10:15:57.448Z,1014.39
2022-10-13T10:16:57.444Z,1014.39
2022-10-13T10:17:57.445Z,1014.33
2022-10-13T10:18:58.953Z,1014.28
2022-10-13T10:19:57.410Z,1014.44
2022-10-13T10:20:57.420Z,1014.30
2022-10-13T10:21:57.388Z,1014.25
2022-10-13T10:22:57.385Z,1014.25
2022-10-13T10:23:57.366Z,1014.22
2022-10-13T10:24:57.445Z,1014.22
2022-10-13T10:25:57.339Z,1014.22
2022-10-13T10:26:57.330Z,1014.18
2022-10-13T10:27:57.331Z,1014.18
2022-10-13T10:28:57.357Z,1014.18
2022-10-13T10:29:57.295Z,1014.16
2022-10-13T10:30:57.292Z,1014.18
2022-10-13T10:31:57.272Z,1014.19
2022-10-13T10:32:57.297Z,1014.13
2022-10-13T10:33:57.250Z,1014.15
2022-10-13T10:34:57.241Z,1014.13
2022-10-13T10:35:57.235Z,1014.11
2022-10-13T10:36:57.253Z,1014.13
2022-10-13T10:37:57.205Z,1014.14
2022-10-13T10:38:57.210Z,1014.14
2022-10-13T10:39:57.187Z,1014.15
2022-10-13T10:40:57.253Z,1014.10
2022-10-13T10:41:57.174Z,1014.10
2022-10-13T10:42:57.156Z,1014.06
2022-10-13T10:43:57.143Z,1014.01
2022-10-13T10:44:57.132Z,1013.95
2022-10-13T10:45:57.120Z,1013.99
2022-10-13T10:46:57.128Z,1013.97
2022-10-13T10:47:57.100Z,1013.93
2022-10-13T10:48:57.095Z,1013.93
2022-10-13T10:49:57.078Z,1013.89
2022-10-13T10:50:57.070Z,1013.86
2022-10-13T10:51:57.073Z,1013.90
2022-10-13T10:52:57.049Z,1013.89
2022-10-13T10:53:57.037Z,1013.92
2022-10-13T10:54:57.027Z,1013.86
2022-10-13T10:55:57.015Z,1013.86
2022-10-13T10:56:57.031Z,1013.84
2022-10-13T10:57:56.995Z,1013.83
2022-10-13T10:58:56.989Z,1013.80
2022-10-13T10:59:56.973Z,1013.82
2022-10-13T11:00:56.971Z,1013.80
2022-10-13T11:01:57.010Z,1013.86
2022-10-13T11:02:56.943Z,1013.83
2022-10-13T11:03:56.928Z,1013.80
2022-10-13T11:04:56.919Z,1013.76
2022-10-13T11:05:56.908Z,1013.77
2022-10-13T11:06:56.973Z,1013.71
2022-10-13T11:07:56.887Z,1013.71
2022-10-13T11:08:56.878Z,1013.72
2022-10-13T11:09:56.867Z,1013.73
2022-10-13T11:10:56.858Z,1013.73
2022-10-13T11:11:56.857Z,1013.69
2022-10-13T11:12:56.844Z,1013.67
2022-10-13T11:13:56.819Z,1013.64
2022-10-13T11:14:56.811Z,1013.64
2022-10-13T11:15:56.803Z,1013.67
2022-10-13T11:16:56.795Z,1013.61
2022-10-13T11:17:56.773Z,1013.65
2022-10-13T11:18:56.763Z,1013.66
2022-10-13T11:19:56.751Z,1013.65
2022-10-13T11:20:56.743Z,1013.63
2022-10-13T11:21:56.741Z,1013.66
2022-10-13T11:22:56.721Z,1013.61
2022-10-13T11:24:01.796Z,1013.61
2022-10-13T11:24:57.701Z,1013.61
2022-10-13T11:25:56.688Z,1013.60
2022-10-13T11:26:56.687Z,1013.57
2022-10-13T11:27:56.664Z,1013.58
2022-10-13T11:28:56.711Z,1013.59
2022-10-13T11:29:56.757Z,1013.56
2022-10-13T11:30:56.636Z,1013.52
2022-10-13T11:31:56.634Z,1013.57
2022-10-13T11:32:56.669Z,1013.55
2022-10-13T11:33:56.601Z,1013.58
2022-10-13T11:34:56.590Z,1013.55
2022-10-13T11:35:56.577Z,1013.58
2022-10-13T11:36:56.580Z,1013.55
2022-10-13T11:38:06.780Z,1013.49
2022-10-13T11:38:57.545Z,1013.45
2022-10-13T11:39:56.579Z,1013.46
2022-10-13T11:40:56.539Z,1013.47
2022-10-13T11:41:56.525Z,1013.39
2022-10-13T11:42:58.512Z,1013.36
2022-10-13T11:43:56.490Z,1013.43
2022-10-13T11:44:56.503Z,1013.42
2022-10-13T11:45:56.470Z,1013.43
2022-10-13T11:46:56.495Z,1013.36
2022-10-13T11:47:56.529Z,1013.34
2022-10-13T11:48:56.438Z,1013.33
2022-10-13T11:49:56.425Z,1013.32
2022-10-13T11:50:56.414Z,1013.30
2022-10-13T11:51:56.411Z,1013.26
2022-10-13T11:52:56.396Z,1013.20
2022-10-13T11:53:56.384Z,1013.22
2022-10-13T11:54:56.373Z,1013.19
2022-10-13T11:55:56.359Z,1013.14
2022-10-13T11:56:56.390Z,1013.16
2022-10-13T11:57:56.344Z,1013.10
2022-10-13T11:58:56.359Z,1013.09
2022-10-13T11:59:56.313Z,1013.14
2022-10-13T12:00:56.321Z,1013.14
2022-10-13T12:01:56.307Z,1013.15
2022-10-13T12:02:56.334Z,1013.13
2022-10-13T12:03:56.272Z,1013.10
2022-10-13T12:04:56.375Z,1013.12
2022-10-13T12:05:56.253Z,1013.09